createdAt,value
2023-01-06T00:01:24.075Z,-17.20
2023-01-06T00:03:54.284Z,-17.33
2023-01-06T00:06:27.688Z,-17.33
2023-01-06T00:08:56.155Z,-17.37
2023-01-06T00:11:24.176Z,-17.47
2023-01-06T00:13:52.536Z,-17.54
2023-01-06T00:16:21.597Z,-17.76
2023-01-06T00:18:49.767Z,-17.82
2023-01-06T00:21:19.071Z,-17.84
2023-01-06T00:23:47.115Z,-17.69
2023-01-06T00:26:15.318Z,-17.81
2023-01-06T00:28:43.855Z,-17.85
2023-01-06T00:31:12.945Z,-17.92
2023-01-06T00:33:40.905Z,-17.92
2023-01-06T00:36:09.774Z,-17.91
2023-01-06T00:38:39.780Z,-18.11
2023-01-06T00:41:28.204Z,-18.01
2023-01-06T00:43:56.542Z,-18.07
2023-01-06T00:46:26.972Z,-18.04
2023-01-06T00:49:04.634Z,-18.08
2023-01-06T00:51:33.565Z,-18.11
2023-01-06T00:54:03.043Z,-18.17
2023-01-06T00:56:31.254Z,-18.29
2023-01-06T00:58:59.603Z,-18.37
2023-01-06T01:01:27.685Z,-18.37
2023-01-06T01:03:55.979Z,-18.28
2023-01-06T01:06:24.121Z,-18.42
2023-01-06T01:09:00.759Z,-18.45
2023-01-06T01:11:47.793Z,-18.63
2023-01-06T01:14:16.687Z,-18.45
2023-01-06T01:16:44.736Z,-18.47
2023-01-06T01:19:13.082Z,-18.59
2023-01-06T01:21:41.255Z,-18.68
2023-01-06T01:24:09.488Z,-18.68
2023-01-06T01:26:39.029Z,-18.65
2023-01-06T01:29:07.044Z,-18.81
2023-01-06T01:31:35.133Z,-18.85
2023-01-06T01:34:03.567Z,-18.88
2023-01-06T01:36:31.580Z,-19.03
2023-01-06T01:38:59.911Z,-19.06
2023-01-06T01:41:28.726Z,-18.99
2023-01-06T01:43:59.884Z,-19.05
2023-01-06T01:46:30.239Z,-19.02
2023-01-06T01:48:59.510Z,-19.00
2023-01-06T01:51:31.993Z,-18.96
2023-01-06T01:54:02.305Z,-19.01
2023-01-06T01:56:31.813Z,-19.01
2023-01-06T01:59:03.035Z,-19.17
2023-01-06T02:01:31.627Z,-19.21
2023-01-06T02:04:00.378Z,-19.26
2023-01-06T02:06:29.068Z,-19.22
2023-01-06T02:09:01.845Z,-19.37
2023-01-06T02:11:32.546Z,-19.21
2023-01-06T02:14:08.897Z,-19.13
2023-01-06T02:16:41.009Z,-19.22
2023-01-06T02:19:18.107Z,-19.32
2023-01-06T02:21:55.324Z,-19.35
2023-01-06T02:24:44.172Z,-19.29
2023-01-06T02:27:34.857Z,-19.39
2023-01-06T02:30:17.378Z,-19.34
2023-01-06T02:32:54.657Z,-19.40
2023-01-06T02:35:33.898Z,-19.50
2023-01-06T02:38:06.314Z,-19.42
2023-01-06T02:40:44.479Z,-19.52
2023-01-06T02:43:17.083Z,-19.47
2023-01-06T02:45:57.273Z,-19.41
2023-01-06T02:48:34.125Z,-19.47
2023-01-06T02:51:05.900Z,-19.48
2023-01-06T02:53:40.350Z,-19.50
2023-01-06T02:56:08.456Z,-19.42
2023-01-06T02:58:42.068Z,-19.55
2023-01-06T03:01:12.774Z,-19.62
2023-01-06T03:03:44.597Z,-19.60
2023-01-06T03:06:15.295Z,-19.73
2023-01-06T03:08:45.339Z,-19.70
2023-01-06T03:11:13.757Z,-19.73
2023-01-06T03:13:45.127Z,-19.67
2023-01-06T03:16:13.433Z,-19.72
2023-01-06T03:18:43.861Z,-19.76
2023-01-06T03:21:15.159Z,-19.82
2023-01-06T03:23:43.867Z,-19.82
2023-01-06T03:26:11.868Z,-19.77
2023-01-06T03:28:39.899Z,-19.92
2023-01-06T03:31:12.923Z,-19.83
2023-01-06T03:33:46.547Z,-19.81
2023-01-06T03:36:19.951Z,-19.90
2023-01-06T03:38:51.232Z,-19.88
2023-01-06T03:41:44.554Z,-19.83
2023-01-06T03:44:15.871Z,-19.85
2023-01-06T03:46:46.054Z,-19.82
2023-01-06T03:49:20.087Z,-19.85
2023-01-06T03:51:49.736Z,-19.93
2023-01-06T03:54:24.172Z,-19.88
2023-01-06T03:56:54.934Z,-19.98
2023-01-06T03:59:24.964Z,-19.84
2023-01-06T04:01:53.028Z,-19.94
2023-01-06T04:04:22.584Z,-20.04
2023-01-06T04:06:50.579Z,-20.00
2023-01-06T04:09:18.566Z,-20.02
2023-01-06T04:12:04.313Z,-20.07
2023-01-06T04:14:32.314Z,-20.00
2023-01-06T04:17:00.258Z,-20.06
2023-01-06T04:19:29.664Z,-20.08
2023-01-06T04:21:57.584Z,-19.92
2023-01-06T04:24:25.555Z,-19.96
2023-01-06T04:26:53.607Z,-19.80
2023-01-06T04:29:21.521Z,-19.87
2023-01-06T04:31:50.757Z,-19.87
2023-01-06T04:34:18.785Z,-19.90
2023-01-06T04:36:48.251Z,-19.93
2023-01-06T04:39:16.297Z,-19.88
2023-01-06T04:41:44.339Z,-20.01
2023-01-06T04:44:12.404Z,-20.07
2023-01-06T04:46:40.584Z,-20.06
2023-01-06T04:49:08.780Z,-20.07
2023-01-06T04:51:36.968Z,-20.15
2023-01-06T04:54:06.577Z,-20.09
2023-01-06T04:56:34.659Z,-20.12
2023-01-06T04:59:02.698Z,-20.35
2023-01-06T05:01:30.881Z,-20.39
2023-01-06T05:03:59.081Z,-20.37
2023-01-06T05:06:27.097Z,-20.42
2023-01-06T05:08:55.168Z,-20.54
2023-01-06T05:11:25.797Z,-20.52
2023-01-06T05:13:54.296Z,-20.46
2023-01-06T05:16:24.855Z,-20.52
2023-01-06T05:18:53.075Z,-20.56
2023-01-06T05:21:21.133Z,-20.61
2023-01-06T05:23:49.157Z,-20.61
2023-01-06T05:26:18.322Z,-20.61
2023-01-06T05:28:47.799Z,-20.55
2023-01-06T05:31:15.831Z,-20.57
2023-01-06T05:33:43.923Z,-20.57
2023-01-06T05:36:13.218Z,-20.54
2023-01-06T05:38:41.451Z,-20.57
2023-01-06T05:41:09.751Z,-20.66
2023-01-06T05:43:38.855Z,-20.60
2023-01-06T05:46:08.934Z,-20.67
2023-01-06T05:48:37.181Z,-20.67
2023-01-06T05:51:06.469Z,-20.59
2023-01-06T05:53:35.467Z,-20.67
2023-01-06T05:56:04.027Z,-20.66
2023-01-06T05:58:33.684Z,-20.60
2023-01-06T06:01:01.986Z,-20.63
2023-01-06T06:03:31.764Z,-20.61
2023-01-06T06:06:03.332Z,-20.66
2023-01-06T06:08:31.317Z,-20.70
2023-01-06T06:11:03.432Z,-20.92
2023-01-06T06:13:31.660Z,-20.80
2023-01-06T06:16:07.074Z,-20.72
2023-01-06T06:18:36.653Z,-20.77
2023-01-06T06:21:05.146Z,-20.78
2023-01-06T06:23:33.606Z,-20.79
2023-01-06T06:26:01.495Z,-20.72
2023-01-06T06:28:31.591Z,-20.77
2023-01-06T06:31:04.781Z,-20.86
2023-01-06T06:33:32.881Z,-20.73
2023-01-06T06:36:02.717Z,-20.82
2023-01-06T06:38:30.779Z,-20.69
2023-01-06T06:40:58.811Z,-20.69
2023-01-06T06:43:26.784Z,-20.60
2023-01-06T06:45:54.861Z,-20.64
2023-01-06T06:48:22.966Z,-20.55
2023-01-06T06:50:57.650Z,-20.52
2023-01-06T06:53:27.447Z,-20.61
2023-01-06T06:55:55.958Z,-20.60
2023-01-06T06:58:24.171Z,-20.58
2023-01-06T07:00:52.260Z,-20.43
2023-01-06T07:03:20.665Z,-20.49
2023-01-06T07:05:49.580Z,-20.45
2023-01-06T07:08:17.684Z,-20.34
2023-01-06T07:10:47.181Z,-20.28
2023-01-06T07:13:15.243Z,-20.30
2023-01-06T07:15:43.426Z,-20.05
2023-01-06T07:18:11.583Z,-20.17
2023-01-06T07:20:40.344Z,-20.14
2023-01-06T07:23:08.405Z,-20.28
2023-01-06T07:25:36.389Z,-20.21
2023-01-06T07:28:07.269Z,-20.17
2023-01-06T07:30:35.556Z,-20.13
2023-01-06T07:33:03.735Z,-20.20
2023-01-06T07:35:32.021Z,-20.19
2023-01-06T07:38:03.753Z,-20.40
2023-01-06T07:40:31.823Z,-20.38
2023-01-06T07:42:59.897Z,-20.47
2023-01-06T07:45:29.373Z,-20.37
2023-01-06T07:47:57.828Z,-20.24
2023-01-06T07:50:26.495Z,-20.11
2023-01-06T07:52:54.732Z,-20.15
2023-01-06T07:55:22.822Z,-20.02
2023-01-06T07:57:50.921Z,-20.00
2023-01-06T08:00:18.965Z,-19.98
2023-01-06T08:02:48.395Z,-19.92
2023-01-06T08:05:16.443Z,-19.91
2023-01-06T08:07:46.525Z,-19.73
2023-01-06T08:10:14.595Z,-19.66
2023-01-06T08:12:42.566Z,-19.68
2023-01-06T08:15:11.294Z,-19.66
2023-01-06T08:17:39.346Z,-19.63
2023-01-06T08:20:10.307Z,-19.55
2023-01-06T08:22:38.306Z,-19.52
2023-01-06T08:25:06.625Z,-19.47
2023-01-06T08:27:34.840Z,-19.52
2023-01-06T08:30:02.864Z,-19.45
2023-01-06T08:32:31.780Z,-19.57
2023-01-06T08:34:59.865Z,-19.56
2023-01-06T08:37:29.912Z,-19.40
2023-01-06T08:39:57.897Z,-19.46
2023-01-06T08:42:25.861Z,-19.52
2023-01-06T08:44:53.925Z,-19.62
2023-01-06T08:47:21.877Z,-19.44
2023-01-06T08:49:49.868Z,-19.49
2023-01-06T08:52:18.086Z,-19.20
2023-01-06T08:54:50.303Z,-19.27
2023-01-06T08:57:18.284Z,-19.19
2023-01-06T08:59:46.249Z,-19.13
2023-01-06T09:02:14.323Z,-19.08
2023-01-06T09:04:42.521Z,-19.12
2023-01-06T09:07:10.806Z,-19.26
2023-01-06T09:09:38.879Z,-19.23
2023-01-06T09:12:08.743Z,-19.47
2023-01-06T09:14:36.932Z,-19.12
2023-01-06T09:17:05.147Z,-19.16
2023-01-06T09:19:33.102Z,-19.04
2023-01-06T09:22:01.269Z,-18.83
2023-01-06T09:24:29.448Z,-18.85
2023-01-06T09:26:57.459Z,-18.90
2023-01-06T09:29:27.119Z,-18.91
2023-01-06T09:31:55.079Z,-18.91
2023-01-06T09:34:23.053Z,-18.85
2023-01-06T09:36:51.344Z,-18.83
2023-01-06T09:39:19.609Z,-18.83
2023-01-06T09:42:02.370Z,-19.20
2023-01-06T09:44:32.961Z,-19.12
2023-01-06T09:47:01.610Z,-18.77
2023-01-06T09:49:31.673Z,-18.86
2023-01-06T09:52:02.507Z,-18.68
2023-01-06T09:54:33.755Z,-18.97
2023-01-06T09:57:04.299Z,-18.87
2023-01-06T09:59:35.660Z,-18.62
2023-01-06T10:02:04.626Z,-18.70
2023-01-06T10:04:33.021Z,-18.43
2023-01-06T10:07:08.370Z,-18.54
2023-01-06T10:09:41.842Z,-18.61
2023-01-06T10:12:17.626Z,-18.57
2023-01-06T10:14:53.551Z,-18.42
2023-01-06T10:17:36.345Z,-18.20
2023-01-06T10:20:09.940Z,-18.12
2023-01-06T10:22:44.055Z,-18.09
2023-01-06T10:25:17.665Z,-18.15
2023-01-06T10:27:50.153Z,-17.89
2023-01-06T10:30:20.901Z,-18.04
2023-01-06T10:32:50.829Z,-17.94
2023-01-06T10:35:20.139Z,-18.29
2023-01-06T10:37:49.257Z,-18.41
2023-01-06T10:40:20.512Z,-18.26
2023-01-06T10:43:00.314Z,-18.12
2023-01-06T10:45:35.990Z,-18.07
2023-01-06T10:48:05.982Z,-18.03
2023-01-06T10:50:35.244Z,-17.98
2023-01-06T10:53:05.412Z,-17.92
2023-01-06T10:55:35.868Z,-17.83
2023-01-06T10:58:08.841Z,-17.92
2023-01-06T11:00:38.551Z,-17.90
2023-01-06T11:03:31.377Z,-17.98
2023-01-06T11:06:05.587Z,-17.75
2023-01-06T11:08:34.197Z,-17.71
2023-01-06T11:11:02.414Z,-17.88
2023-01-06T11:13:33.687Z,-17.94
2023-01-06T11:16:05.985Z,-17.90
2023-01-06T11:18:35.379Z,-17.80
2023-01-06T11:21:10.686Z,-17.95
2023-01-06T11:23:48.123Z,-18.16
2023-01-06T11:26:17.894Z,-18.04
2023-01-06T11:28:46.924Z,-17.90
2023-01-06T11:31:21.116Z,-17.93
2023-01-06T11:33:50.814Z,-18.17
2023-01-06T11:36:19.526Z,-18.16
2023-01-06T11:38:49.234Z,-18.17
2023-01-06T11:41:23.347Z,-18.15
2023-01-06T11:43:51.891Z,-18.17
2023-01-06T11:46:25.640Z,-18.24
2023-01-06T11:48:59.194Z,-18.14
2023-01-06T11:51:34.313Z,-18.25
2023-01-06T11:54:02.862Z,-18.27
2023-01-06T11:56:30.804Z,-18.45
2023-01-06T11:59:03.642Z,-18.50
2023-01-06T12:01:39.067Z,-18.47
2023-01-06T12:04:15.750Z,-18.62
2023-01-06T12:06:44.686Z,-18.69
2023-01-06T12:09:17.491Z,-18.64
2023-01-06T12:11:47.361Z,-18.67
2023-01-06T12:14:27.822Z,-18.63
2023-01-06T12:17:03.373Z,-18.62
2023-01-06T12:19:35.578Z,-18.73
2023-01-06T12:22:04.691Z,-18.54
2023-01-06T12:24:34.018Z,-18.62
2023-01-06T12:27:03.043Z,-18.65
2023-01-06T12:29:31.993Z,-18.73
2023-01-06T12:32:09.214Z,-18.67
2023-01-06T12:34:39.183Z,-18.76
2023-01-06T12:37:16.170Z,-18.61
2023-01-06T12:39:48.889Z,-18.58
2023-01-06T12:42:22.342Z,-18.62
2023-01-06T12:44:52.788Z,-18.64
2023-01-06T12:47:26.700Z,-18.77
2023-01-06T12:49:56.748Z,-18.69
2023-01-06T12:52:27.792Z,-18.55
2023-01-06T12:54:58.298Z,-18.80
2023-01-06T12:57:34.582Z,-18.91
2023-01-06T13:00:11.247Z,-18.84
2023-01-06T13:02:53.665Z,-18.79
2023-01-06T13:05:27.483Z,-18.99
2023-01-06T13:08:02.429Z,-18.83
2023-01-06T13:10:32.556Z,-18.77
2023-01-06T13:13:06.801Z,-18.76
2023-01-06T13:15:35.688Z,-18.82
2023-01-06T13:18:11.858Z,-19.01
2023-01-06T13:20:43.707Z,-18.97
2023-01-06T13:23:26.384Z,-18.99
2023-01-06T13:26:12.198Z,-18.93
2023-01-06T13:28:46.838Z,-18.98
2023-01-06T13:31:24.003Z,-19.01
2023-01-06T13:34:09.958Z,-19.07
2023-01-06T13:36:56.636Z,-19.09
2023-01-06T13:39:26.352Z,-19.13
2023-01-06T13:41:56.013Z,-19.14
2023-01-06T13:44:26.221Z,-19.12
2023-01-06T13:46:56.035Z,-19.23
2023-01-06T13:49:25.986Z,-19.29
2023-01-06T13:51:55.101Z,-19.31
2023-01-06T13:54:41.752Z,-19.42
2023-01-06T13:57:30.498Z,-19.44
2023-01-06T14:00:15.330Z,-19.38
2023-01-06T14:03:01.710Z,-19.54
2023-01-06T14:05:48.544Z,-19.60
2023-01-06T14:08:19.201Z,-19.61
2023-01-06T14:10:48.709Z,-19.48
2023-01-06T14:13:21.773Z,-19.52
2023-01-06T14:15:56.254Z,-19.69
2023-01-06T14:18:32.410Z,-19.75
2023-01-06T14:21:04.927Z,-19.74
2023-01-06T14:23:34.537Z,-19.80
2023-01-06T14:26:02.726Z,-19.80
2023-01-06T14:28:32.388Z,-19.88
2023-01-06T14:31:19.132Z,-19.87
2023-01-06T14:33:49.359Z,-20.01
2023-01-06T14:36:18.552Z,-20.10
2023-01-06T14:38:49.337Z,-19.99
2023-01-06T14:41:20.288Z,-20.03
2023-01-06T14:43:52.776Z,-19.89
2023-01-06T14:46:22.846Z,-19.98
2023-01-06T14:48:53.723Z,-19.94
2023-01-06T14:51:23.265Z,-20.00
2023-01-06T14:53:59.847Z,-20.01
2023-01-06T14:56:30.266Z,-20.15
2023-01-06T14:59:10.954Z,-20.20
2023-01-06T15:01:39.910Z,-20.22
2023-01-06T15:04:08.443Z,-20.28
2023-01-06T15:06:36.476Z,-20.53
2023-01-06T15:09:20.327Z,-20.25
2023-01-06T15:11:48.527Z,-20.33
2023-01-06T15:14:29.659Z,-20.22
2023-01-06T15:16:58.604Z,-20.37
2023-01-06T15:19:26.715Z,-20.32
2023-01-06T15:21:55.480Z,-20.30
2023-01-06T15:24:25.592Z,-20.36
2023-01-06T15:26:55.218Z,-20.65
2023-01-06T15:29:24.065Z,-20.43
2023-01-06T15:31:53.672Z,-20.55
2023-01-06T15:34:23.083Z,-20.55
2023-01-06T15:36:53.553Z,-20.56
2023-01-06T15:39:27.930Z,-20.63
2023-01-06T15:41:56.578Z,-20.56
2023-01-06T15:44:28.715Z,-20.53
2023-01-06T15:46:59.471Z,-20.49
2023-01-06T15:49:29.805Z,-20.59
2023-01-06T15:51:59.396Z,-20.53
2023-01-06T15:54:30.250Z,-20.55
2023-01-06T15:57:05.149Z,-20.66
2023-01-06T15:59:40.352Z,-20.57
2023-01-06T16:02:18.111Z,-20.69
2023-01-06T16:04:49.086Z,-20.75
2023-01-06T16:07:24.063Z,-20.95
2023-01-06T16:09:53.681Z,-20.83
2023-01-06T16:12:22.069Z,-20.85
2023-01-06T16:14:52.921Z,-20.85
2023-01-06T16:17:30.091Z,-20.86
2023-01-06T16:20:01.453Z,-20.98
2023-01-06T16:22:34.241Z,-21.01
2023-01-06T16:25:05.356Z,-20.97
2023-01-06T16:27:33.373Z,-20.95
2023-01-06T16:30:08.480Z,-21.01
2023-01-06T16:32:39.720Z,-21.25
2023-01-06T16:35:12.366Z,-21.07
2023-01-06T16:37:40.318Z,-21.10
2023-01-06T16:40:10.894Z,-20.99
2023-01-06T16:42:42.832Z,-20.98
2023-01-06T16:45:15.117Z,-21.03
2023-01-06T16:47:43.468Z,-21.13
2023-01-06T16:50:22.125Z,-21.02
2023-01-06T16:52:52.375Z,-21.18
2023-01-06T16:55:21.995Z,-21.10
2023-01-06T16:57:51.056Z,-21.05
2023-01-06T17:00:20.241Z,-20.97
2023-01-06T17:02:49.081Z,-21.09
2023-01-06T17:05:22.542Z,-21.04
2023-01-06T17:07:50.771Z,-20.99
2023-01-06T17:10:21.966Z,-21.08
2023-01-06T17:13:11.964Z,-21.32
2023-01-06T17:15:40.116Z,-21.29
2023-01-06T17:18:22.573Z,-21.20
2023-01-06T17:20:51.658Z,-21.16
2023-01-06T17:23:19.971Z,-21.10
2023-01-06T17:25:48.039Z,-21.05
2023-01-06T17:28:22.321Z,-21.20
2023-01-06T17:30:51.123Z,-21.26
2023-01-06T17:33:19.896Z,-21.19
2023-01-06T17:35:50.098Z,-21.04
2023-01-06T17:38:21.030Z,-21.24
2023-01-06T17:40:49.355Z,-21.43
2023-01-06T17:43:23.709Z,-21.25
2023-01-06T17:45:53.109Z,-21.21
2023-01-06T17:48:21.231Z,-21.07
2023-01-06T17:50:50.645Z,-21.05
2023-01-06T17:53:37.166Z,-21.12
2023-01-06T17:56:06.439Z,-21.08
2023-01-06T17:58:36.321Z,-21.15
2023-01-06T18:01:07.647Z,-21.15
2023-01-06T18:03:38.739Z,-21.19
2023-01-06T18:06:08.776Z,-21.27
2023-01-06T18:08:38.220Z,-21.24
2023-01-06T18:11:21.300Z,-21.28
2023-01-06T18:13:51.799Z,-21.23
2023-01-06T18:16:28.341Z,-21.36
2023-01-06T18:18:59.656Z,-21.52
2023-01-06T18:21:32.259Z,-21.44
2023-01-06T18:24:00.325Z,-21.43
2023-01-06T18:26:34.751Z,-21.40
2023-01-06T18:29:07.382Z,-21.52
2023-01-06T18:31:38.838Z,-21.48
2023-01-06T18:34:19.029Z,-21.43
2023-01-06T18:36:49.495Z,-21.38
2023-01-06T18:39:18.188Z,-21.43
2023-01-06T18:41:46.278Z,-21.51
2023-01-06T18:44:17.290Z,-21.44
2023-01-06T18:46:46.866Z,-21.38
2023-01-06T18:49:15.719Z,-21.38
2023-01-06T18:51:44.595Z,-21.42
2023-01-06T18:54:15.510Z,-21.51
2023-01-06T18:56:43.643Z,-21.51
2023-01-06T18:59:16.487Z,-21.39
2023-01-06T19:01:47.445Z,-21.31
2023-01-06T19:04:19.433Z,-21.34
2023-01-06T19:06:49.421Z,-21.42
2023-01-06T19:09:18.950Z,-21.36
2023-01-06T19:11:47.722Z,-21.37
2023-01-06T19:14:18.387Z,-21.21
2023-01-06T19:16:50.793Z,-21.32
2023-01-06T19:19:24.754Z,-21.39
2023-01-06T19:21:53.786Z,-21.43
2023-01-06T19:24:48.899Z,-21.26
2023-01-06T19:27:26.382Z,-21.05
2023-01-06T19:29:56.252Z,-21.06
2023-01-06T19:32:28.874Z,-21.05
2023-01-06T19:34:57.346Z,-21.02
2023-01-06T19:37:25.532Z,-20.96
2023-01-06T19:39:56.670Z,-21.15
2023-01-06T19:42:27.835Z,-21.00
2023-01-06T19:44:58.323Z,-21.01
2023-01-06T19:47:28.990Z,-21.11
2023-01-06T19:50:00.141Z,-21.17
2023-01-06T19:52:29.988Z,-21.22
2023-01-06T19:55:01.550Z,-21.18
2023-01-06T19:57:30.257Z,-21.13
2023-01-06T19:59:59.760Z,-21.30
2023-01-06T20:02:31.105Z,-21.26
2023-01-06T20:04:59.433Z,-21.32
2023-01-06T20:07:28.594Z,-21.41
2023-01-06T20:09:56.712Z,-21.27
2023-01-06T20:12:24.746Z,-21.32
2023-01-06T20:14:52.846Z,-21.35
2023-01-06T20:17:20.889Z,-21.50
2023-01-06T20:19:50.338Z,-21.50
2023-01-06T20:22:18.455Z,-21.42
2023-01-06T20:24:48.253Z,-21.54
2023-01-06T20:27:16.531Z,-21.51
2023-01-06T20:29:44.604Z,-21.42
2023-01-06T20:32:12.618Z,-21.40
2023-01-06T20:34:40.540Z,-21.53
2023-01-06T20:37:10.057Z,-21.50
2023-01-06T20:39:38.050Z,-21.56
2023-01-06T20:42:06.070Z,-21.47
2023-01-06T20:44:34.307Z,-21.50
2023-01-06T20:47:02.445Z,-21.46
2023-01-06T20:49:30.381Z,-21.45
2023-01-06T20:51:58.518Z,-21.41
2023-01-06T20:54:27.979Z,-21.42
2023-01-06T20:56:56.045Z,-21.53
2023-01-06T20:59:24.116Z,-21.57
2023-01-06T21:01:52.252Z,-21.53
2023-01-06T21:04:20.303Z,-21.56
2023-01-06T21:06:48.304Z,-21.69
2023-01-06T21:09:16.442Z,-21.70
2023-01-06T21:11:45.876Z,-21.65
2023-01-06T21:14:13.857Z,-21.61
2023-01-06T21:16:41.935Z,-21.66
2023-01-06T21:19:10.011Z,-21.64
2023-01-06T21:21:38.088Z,-21.62
2023-01-06T21:24:06.236Z,-21.73
2023-01-06T21:26:35.471Z,-21.69
2023-01-06T21:29:04.958Z,-21.67
2023-01-06T21:31:32.944Z,-21.64
2023-01-06T21:34:01.036Z,-21.82
2023-01-06T21:36:29.028Z,-21.83
2023-01-06T21:38:57.067Z,-21.83
2023-01-06T21:41:42.710Z,-21.84
2023-01-06T21:44:12.143Z,-21.88
2023-01-06T21:46:40.605Z,-21.94
2023-01-06T21:49:08.805Z,-21.96
2023-01-06T21:51:37.719Z,-21.97
2023-01-06T21:54:05.903Z,-22.13
2023-01-06T21:56:34.262Z,-22.01
2023-01-06T21:59:02.409Z,-21.89
2023-01-06T22:01:32.065Z,-21.93
2023-01-06T22:04:00.208Z,-21.94
2023-01-06T22:06:29.969Z,-22.01
2023-01-06T22:08:58.565Z,-21.91
2023-01-06T22:11:26.722Z,-22.01
2023-01-06T22:13:54.964Z,-21.93
2023-01-06T22:16:23.118Z,-21.89
2023-01-06T22:18:54.341Z,-21.86
2023-01-06T22:21:22.834Z,-22.02
2023-01-06T22:23:51.664Z,-21.98
2023-01-06T22:26:19.669Z,-21.96
2023-01-06T22:28:47.631Z,-21.94
2023-01-06T22:31:15.668Z,-22.02
2023-01-06T22:33:43.832Z,-21.99
2023-01-06T22:36:13.352Z,-21.96
2023-01-06T22:38:41.379Z,-21.89
2023-01-06T22:41:10.392Z,-21.91
2023-01-06T22:43:38.374Z,-21.92
2023-01-06T22:46:06.589Z,-21.96
2023-01-06T22:48:34.630Z,-21.96
2023-01-06T22:51:03.807Z,-21.92
2023-01-06T22:53:33.697Z,-21.92
2023-01-06T22:56:02.607Z,-21.84
2023-01-06T22:58:30.954Z,-21.93
2023-01-06T23:00:58.937Z,-21.89
2023-01-06T23:03:27.260Z,-21.84
2023-01-06T23:05:55.900Z,-21.91
2023-01-06T23:08:24.268Z,-21.90
2023-01-06T23:10:58.681Z,-21.97
2023-01-06T23:13:26.623Z,-21.98
2023-01-06T23:16:00.292Z,-22.16
2023-01-06T23:18:28.253Z,-22.07
2023-01-06T23:21:00.319Z,-22.00
2023-01-06T23:23:28.679Z,-21.97
2023-01-06T23:26:03.527Z,-22.00
2023-01-06T23:28:31.700Z,-21.97
2023-01-06T23:31:06.455Z,-22.00
2023-01-06T23:33:37.834Z,-22.11
2023-01-06T23:36:06.207Z,-22.09
2023-01-06T23:38:34.251Z,-22.05
2023-01-06T23:41:04.267Z,-22.07
2023-01-06T23:43:32.792Z,-22.06
2023-01-06T23:46:01.396Z,-22.10
2023-01-06T23:48:30.321Z,-21.97
2023-01-06T23:50:58.475Z,-22.10
2023-01-06T23:53:26.737Z,-22.06
2023-01-06T23:55:55.277Z,-22.01
2023-01-06T23:58:24.823Z,-22.06
